Time;durP1;ratioP1;P1;durP2;ratioP2;P2;SDS_P1;SDS_P2;PMS_P1;PMS_P2;Temp;Humidity;BMP_temperature;BMP_pressure;BME280_temperature;BME280_humidity;BME280_pressure;Samples;Min_cycle;Max_cycle;Signal;HPM_P1;HPM_P2
2022/02/25 05:06:35;;;;;;;;;23.33;18.00;;;;;;;;6462447;46;9017;-54
2022/02/25 05:12:39;;;;;;;;;33.67;31.33;;;;;;;;6491589;39;9006;-55
2022/02/25 05:25:05;;;;;;;;;42.33;36.00;;;;;;;;6491468;46;9044;-54
2022/02/25 05:31:08;;;;;;;;;44.25;36.25;;;;;;;;6490683;31;8887;-53
2022/02/25 05:37:10;;;;;;;;;36.75;33.75;;;;;;;;6491664;39;8878;-56
2022/02/25 05:43:13;;;;;;;;;36.33;36.00;;;;;;;;6490622;39;8924;-54
2022/02/25 05:49:16;;;;;;;;;37.00;36.00;;;;;;;;6491188;31;9512;-55
2022/02/25 05:55:20;;;;;;;;;45.00;40.50;;;;;;;;6491518;46;8890;-58
2022/02/25 06:01:23;;;;;;;;;37.50;37.00;;;;;;;;6490426;46;9056;-53
2022/02/25 06:07:26;;;;;;;;;44.33;39.00;;;;;;;;6490046;39;9663;-55
2022/02/25 06:13:31;;;;;;;;;37.00;33.75;;;;;;;;6491314;47;8900;-55
2022/02/25 06:19:36;;;;;;;;;22.50;18.75;;;;;;;;6490556;39;8879;-56
2022/02/25 06:25:41;;;;;;;;;45.25;42.00;;;;;;;;6491109;47;8908;-56
2022/02/25 06:31:44;;;;;;;;;57.75;49.50;;;;;;;;6489981;39;8872;-56
2022/02/25 06:37:46;;;;;;;;;63.25;52.25;;;;;;;;6490525;39;9480;-56
2022/02/25 06:43:49;;;;;;;;;61.75;52.50;;;;;;;;6489175;47;8935;-56
2022/02/25 06:49:51;;;;;;;;;63.75;50.75;;;;;;;;6490486;31;8928;-54
2022/02/25 06:55:54;;;;;;;;;64.75;50.00;;;;;;;;6491802;31;8942;-54
2022/02/25 07:01:56;;;;;;;;;61.25;51.50;;;;;;;;6492098;39;8960;-55
2022/02/25 07:07:59;;;;;;;;;58.50;47.50;;;;;;;;6494131;31;8875;-54
2022/02/25 07:14:04;;;;;;;;;44.50;43.00;;;;;;;;6491971;46;8959;-54
2022/02/25 07:20:08;;;;;;;;;43.00;40.00;;;;;;;;6492103;31;8910;-57
2022/02/25 07:26:19;;;;;;;;;38.00;32.00;;;;;;;;6492576;39;8907;-54
2022/02/25 07:32:26;;;;;;;;;35.75;34.25;;;;;;;;6492735;39;8960;-52
2022/02/25 07:38:30;;;;;;;;;33.00;29.25;;;;;;;;6492681;39;8838;-56
2022/02/25 07:44:39;;;;;;;;;68.75;55.00;;;;;;;;6490382;46;9062;-56
2022/02/25 07:50:45;;;;;;;;;65.50;49.75;;;;;;;;6489601;31;8975;-55
2022/02/25 07:56:47;;;;;;;;;52.25;43.50;;;;;;;;6492102;39;8926;-54
2022/02/25 08:02:49;;;;;;;;;29.75;26.00;;;;;;;;6490633;46;9032;-50
2022/02/25 08:08:52;;;;;;;;;36.50;32.00;;;;;;;;6491690;39;8863;-52
2022/02/25 08:14:55;;;;;;;;;40.50;37.25;;;;;;;;6490915;39;9736;-55
2022/02/25 08:20:59;;;;;;;;;35.25;33.00;;;;;;;;6489180;46;8961;-54
2022/02/25 08:27:04;;;;;;;;;32.00;31.00;;;;;;;;6490694;39;8910;-57
2022/02/25 08:33:12;;;;;;;;;32.25;27.50;;;;;;;;6490146;31;8935;-56
2022/02/25 08:39:18;;;;;;;;;28.50;26.50;;;;;;;;6492200;39;8858;-54
2022/02/25 08:45:23;;;;;;;;;43.00;36.50;;;;;;;;6490351;31;8926;-53
2022/02/25 08:51:26;;;;;;;;;34.50;30.00;;;;;;;;6491259;46;8902;-56
2022/02/25 08:57:30;;;;;;;;;34.50;31.25;;;;;;;;6489542;31;8972;-54
2022/02/25 09:03:32;;;;;;;;;28.00;25.75;;;;;;;;6489123;31;8987;-55
2022/02/25 09:09:35;;;;;;;;;34.00;27.25;;;;;;;;6490317;31;8899;-54
2022/02/25 09:15:40;;;;;;;;;37.00;35.00;;;;;;;;6487250;46;9012;-52
2022/02/25 09:21:48;;;;;;;;;33.75;31.25;;;;;;;;6488717;31;8961;-50
2022/02/25 09:27:50;;;;;;;;;40.75;31.00;;;;;;;;6489222;31;8954;-55
2022/02/25 09:33:53;;;;;;;;;32.25;31.00;;;;;;;;6487386;31;8928;-54
2022/02/25 09:39:55;;;;;;;;;37.75;35.75;;;;;;;;6488159;39;8969;-54
2022/02/25 09:46:01;;;;;;;;;37.00;35.25;;;;;;;;6487060;46;8962;-51
2022/02/25 09:52:03;;;;;;;;;30.75;29.50;;;;;;;;6487722;46;8987;-53
2022/02/25 09:58:07;;;;;;;;;35.75;33.00;;;;;;;;6488190;46;8961;-52
2022/02/25 10:04:25;;;;;;;;;38.50;35.00;;;;;;;;6487715;31;9054;-52
2022/02/25 10:10:27;;;;;;;;;25.25;23.00;;;;;;;;6486905;39;8949;-53
2022/02/25 10:16:33;;;;;;;;;38.50;34.75;;;;;;;;6487392;39;8914;-55
